Airfield :







YOU CAN JOIN US ON...

 
LOGIN :

Register | Disclaimer

   EN    FR    IT 

 









Legend :    VFR   Marginal VFR   IFR   Intensive IFR   Very Intensive IFR
Visi :
Ceiling :
>= 8 km
>= 3000ft
5 to 8 km
1000 to 3000 ft
1500m to 5 km
500 to 1000 ft
800 to 1500m
200 to 500 ft
< 800m
< 200 ft
Symbols :   Thunderstorms  Fog  Heavy snow  Heavy precipitations  Wind > 20 kt







- Airport Elevation : 203 ft
- IATA code : YQY


CYQY - Sydney

CURRENT METAR :
  • 262000Z 19010G16KT 15SM FEW048 SCT160 BKN230 21/09 A3023 RMK CU1AC3CI3 SLP239 DENSITY ALT 600FT

EXPIRED METARs :
  • 261900Z 19010G18KT 15SM FEW045 SCT160 BKN240 20/09 A3023 RMK CU1AC2CI3 SLP240 DENSITY ALT 600FT
  • 261800Z 17013G20KT 150V210 14SM FEW040 SCT220 BKN240 20/09 A3023 RMK CU1CC2CI4 SLP241 DENSITY ALT 500FT

TAF TAF CYQY
Valid from the 26 at 18:00 until the 27 at 06:00 UTC


261742Z 2618/2706 16012KT P6SM FEW040 BKN220
BECMG 2618/2620 19009KT RMK NXT FCST BY 270000Z
CZQM FIR / North America



MET'MAP, your aeronautical weather chart ! - Copyright ORBIFLY December 2007 - Disclaimer

ORBIFLY MET'MAP TEAM :

Programming & Development : Alexandra Zaïnal
Concept & Development : Baudouin d'Aumeries
Co-Development & Prog : Marc-Olivier Méhu
Technical & hardware support : Manuel Goepfert

Contact : metmap@orbifly.com




SOURCES & CREDITS :

   NOAA